Latest Weather Observations for St Helens

IDT60801

Issued at 4:05 pm EDT Saturday 25 October 2014 (issued every 30 minutes, with the page automatically refreshed every 10 minutes)

About weather observations | Map of weather stations | Latest weather observations for TAS | Other Formats
Station Details ID: 092120 Name: ST HELENS AERODROME Lat: -41.34 Lon: 148.28 Height: 48.0 m
Data from the previous 72 hours. | See also: Recent months at St Helens
Date/Time
EDT
Temp
°C
App
Temp
°C
Dew
Point
Rel
Hum
%
Delta-T
°C
Wind Press
QNH
hPa
Press
MSL
hPa
Rain
since 9 am
mm
Dir
 
Spd
km/h
Gust
km/h
Spd
kts
Gust
kts
25/04:00pm 14.6 12.8 11.0 79 1.9 SSE 11 20 6 11 1016.1 - 0.0
25/03:30pm 14.6 13.3 11.4 81 1.7 SE 9 17 5 9 1016.1 - 0.0
25/03:00pm 14.8 13.5 11.4 80 1.8 SE 9 17 5 9 1016.2 1016.2 0.0
25/02:30pm 14.9 13.7 11.7 81 1.7 ESE 9 19 5 10 1016.3 - 0.0
25/02:00pm 15.0 13.8 11.6 80 1.8 SE 9 19 5 10 1016.4 - 0.0
25/01:30pm 15.3 13.8 11.9 80 1.8 ESE 11 19 6 10 1016.3 - 0.0
25/01:00pm 15.4 14.1 12.5 83 1.6 ESE 11 24 6 13 1016.2 - 0.0
25/12:30pm 16.5 15.4 13.0 80 2.0 SSE 11 20 6 11 1015.9 - 0.0
25/12:00pm 17.0 15.6 13.5 80 2.0 ESE 13 20 7 11 1016.2 1016.2 0.0
25/11:30am 17.2 16.8 14.1 82 1.8 SE 9 15 5 8 1016.1 - 0.0
25/11:00am 15.5 15.2 13.2 86 1.3 SE 7 13 4 7 1016.2 - 0.0
25/10:30am 16.1 16.2 13.9 87 1.2 ESE 6 11 3 6 1015.8 - 0.0
25/10:00am 15.2 15.0 13.6 90 0.9 ESE 7 17 4 9 1015.7 - 0.0
25/09:30am 15.1 14.9 14.6 97 0.3 SE 9 15 5 8 1015.5 - 0.0
25/09:00am 15.2 14.8 15.2 100 0.0 S 11 19 6 10 1015.1 1015.1 2.4
25/08:30am 14.7 14.5 14.7 100 0.0 S 9 17 5 9 1014.8 - 2.4
25/08:00am 13.9 13.8 13.9 100 0.0 S 7 13 4 7 1014.3 - 2.4
25/07:30am 11.4 10.7 11.4 100 0.0 NW 6 9 3 5 1013.8 - 2.4
25/07:00am 10.7 9.8 10.7 100 0.0 NW 6 9 3 5 1013.1 - 2.4
25/06:30am 10.5 9.0 10.5 100 0.0 NW 9 13 5 7 1012.5 - 2.4
25/06:00am 10.1 9.0 10.1 100 0.0 N 6 9 3 5 1012.0 1011.9 2.4
25/05:30am 11.0 10.0 11.0 100 0.0 NW 7 11 4 6 1011.4 - 2.4
25/05:00am 11.2 10.4 11.2 100 0.0 W 6 9 3 5 1010.8 - 2.4
25/04:30am 11.0 9.6 11.0 100 0.0 N 9 11 5 6 1010.4 - 2.4
25/04:00am 11.0 10.2 11.0 100 0.0 NW 6 9 3 5 1010.0 - 2.4
25/03:30am 11.5 10.6 11.5 100 0.0 NW 7 11 4 6 1009.5 - 2.4
25/03:00am 11.5 12.0 11.5 100 0.0 CALM 0 0 0 0 1009.1 1009.0 2.4
25/02:30am 11.3 11.3 11.3 100 0.0 SSW 2 11 1 6 1009.2 - 2.4
25/02:00am 12.3 11.3 12.3 100 0.0 NW 9 11 5 6 1008.8 - 2.4
25/01:30am 12.6 11.7 12.6 100 0.0 NW 9 11 5 6 1008.9 - 2.2
25/01:00am 13.2 12.5 13.2 100 0.0 NNW 9 11 5 6 1008.7 - 2.2
25/12:30am 13.8 13.7 13.8 100 0.0 NNW 7 9 4 5 1008.9 - 2.2
25/12:00am 14.4 15.1 14.4 100 0.0 NNW 4 7 2 4 1009.0 1008.9 2.2
 
Date/Time
EDT
Temp
°C
App
Temp
°C
Dew
Point
Rel
Hum
%
Delta-T
°C
Wind Press
QNH
hPa
Press
MSL
hPa
Rain
since 9 am
mm
Dir
 
Spd
km/h
Gust
km/h
Spd
kts
Gust
kts
24/11:30pm 14.8 14.6 14.8 100 0.0 N 9 11 5 6 1008.9 - 2.2
24/11:00pm 14.8 15.2 14.8 100 0.0 N 6 7 3 4 1009.4 - 2.2
24/10:30pm 15.2 16.5 15.2 100 0.0 E 2 7 1 4 1009.5 - 2.2
24/10:00pm 15.5 16.2 15.5 100 0.0 NNW 6 9 3 5 1009.5 - 2.2
24/09:30pm 15.6 16.7 15.6 100 0.0 N 4 7 2 4 1009.7 - 2.2
24/09:00pm 15.6 17.1 15.6 100 0.0 N 2 7 1 4 1009.8 1009.7 2.2
24/08:30pm 15.7 17.2 15.7 100 0.0 NNW 2 7 1 4 1010.0 - 2.2
24/08:00pm 15.7 16.4 15.7 100 0.0 N 6 9 3 5 1009.8 - 2.2
24/07:30pm 15.7 15.1 15.7 100 0.0 N 13 17 7 9 1010.1 - 2.2
24/07:00pm 15.7 15.1 15.7 100 0.0 N 13 19 7 10 1010.0 - 2.2
24/06:30pm 15.5 15.2 15.5 100 0.0 N 11 17 6 9 1010.1 - 1.8
24/06:00pm 15.4 15.1 15.4 100 0.0 NNE 11 19 6 10 1010.5 1010.4 1.6
24/05:30pm 15.2 15.1 15.0 99 0.1 NNE 9 13 5 7 1011.0 - 1.0
24/05:00pm 15.2 15.1 15.0 99 0.1 N 9 15 5 8 1011.5 - 0.6
24/04:30pm 15.2 15.1 15.0 99 0.1 NNE 9 17 5 9 1011.7 - 0.4
24/04:00pm 15.4 15.3 14.9 97 0.3 NNE 9 15 5 8 1012.3 - 0.0
24/03:30pm 15.4 15.6 14.6 95 0.5 NNE 7 20 4 11 1013.0 - 0.0
24/03:00pm 15.7 14.6 14.4 92 0.7 NE 13 20 7 11 1013.6 1013.5 0.0
24/02:30pm 15.9 14.4 14.3 90 0.9 NE 15 22 8 12 1014.4 - 0.0
24/02:00pm 16.0 14.2 14.4 90 0.9 NE 17 28 9 15 1015.0 - 0.0
24/01:30pm 16.1 13.9 14.3 89 1.0 NE 19 26 10 14 1015.5 - 0.0
24/01:00pm 15.8 13.8 14.0 89 1.0 NE 17 24 9 13 1016.0 - 0.0
24/12:30pm 15.5 13.9 14.0 91 0.8 NE 15 22 8 12 1016.6 - 0.0
24/12:00pm 15.4 12.8 13.8 90 0.9 NE 20 28 11 15 1017.0 1017.0 0.0
24/11:30am 15.2 12.8 13.7 91 0.8 NE 19 26 10 14 1017.5 - 0.0
24/11:00am 14.9 12.8 13.6 92 0.7 NE 17 26 9 14 1018.1 - 0.0
24/10:30am 14.4 11.8 13.3 93 0.6 NE 19 28 10 15 1018.5 - 0.0
24/10:00am 14.5 12.1 12.5 88 1.1 ENE 17 26 9 14 1018.9 - 0.0
24/09:30am 14.3 12.2 12.3 88 1.1 ENE 15 24 8 13 1019.4 - 0.0
24/09:00am 14.0 12.5 12.0 88 1.1 ENE 11 17 6 9 1020.0 1020.0 0.0
24/08:30am 13.7 11.0 11.6 87 1.1 ENE 17 20 9 11 1020.4 - 0.0
24/08:00am 13.7 11.2 11.2 85 1.3 E 15 24 8 13 1020.8 - 0.0
24/07:30am 13.4 10.4 10.6 83 1.5 ENE 17 24 9 13 1020.9 - 0.0
24/07:00am 12.9 10.6 10.4 85 1.3 E 13 17 7 9 1021.0 - 0.0
24/06:30am 13.1 10.2 9.5 79 1.8 ENE 15 20 8 11 1021.3 - 0.0
24/06:00am 12.9 10.3 9.2 78 1.9 E 13 19 7 10 1021.5 1021.5 0.0
24/05:30am 12.8 10.0 8.7 76 2.1 E 13 20 7 11 1021.7 - 0.0
24/05:00am 12.8 10.0 8.5 75 2.1 E 13 20 7 11 1021.9 - 0.0
24/04:30am 12.6 10.4 7.9 73 2.3 E 9 15 5 8 1022.2 - 0.0
24/04:00am 12.5 10.2 7.4 71 2.5 E 9 15 5 8 1022.4 - 0.0
24/03:30am 12.1 10.7 7.2 72 2.4 ESE 4 9 2 5 1022.8 - 0.0
24/03:00am 12.2 10.2 7.1 71 2.4 E 7 17 4 9 1023.2 1023.2 0.0
24/02:30am 12.2 9.3 6.7 69 2.6 E 11 17 6 9 1023.5 - 0.0
24/02:00am 12.2 8.5 6.5 68 2.7 E 15 20 8 11 1024.0 - 0.0
24/01:30am 12.2 9.4 6.9 70 2.5 E 11 20 6 11 1024.2 - 0.0
24/01:00am 12.1 9.2 6.4 68 2.7 E 11 17 6 9 1024.7 - 0.0
24/12:30am 12.0 9.4 6.1 67 2.8 E 9 15 5 8 1025.0 - 0.0
24/12:00am 12.0 10.1 6.7 70 2.5 ESE 6 17 3 9 1025.5 1025.5 0.0
 
Date/Time
EDT
Temp
°C
App
Temp
°C
Dew
Point
Rel
Hum
%
Delta-T
°C
Wind Press
QNH
hPa
Press
MSL
hPa
Rain
since 9 am
mm
Dir
 
Spd
km/h
Gust
km/h
Spd
kts
Gust
kts
23/11:30pm 11.8 9.6 6.3 69 2.6 E 7 20 4 11 1025.7 - 0.0
23/11:00pm 11.9 9.4 6.6 70 2.5 SE 9 17 5 9 1026.2 - 0.0
23/10:30pm 11.8 9.2 6.1 68 2.7 SE 9 17 5 9 1026.3 - 0.0
23/10:00pm 11.6 8.9 5.7 67 2.7 SE 9 19 5 10 1026.4 - 0.0
23/09:30pm 11.7 8.7 5.8 67 2.8 SE 11 20 6 11 1026.5 - 0.0
23/09:00pm 11.7 8.6 5.6 66 2.8 ESE 11 19 6 10 1026.3 1026.3 0.0
23/08:30pm 11.6 8.5 5.7 67 2.7 SE 11 20 6 11 1026.0 - 0.0
23/08:00pm 11.5 8.8 5.6 67 2.7 SE 9 19 5 10 1025.5 - 0.0
23/07:30pm 11.8 8.8 6.1 68 2.7 SE 11 24 6 13 1025.4 - 0.0
23/07:00pm 12.0 8.6 6.1 67 2.8 SE 13 24 7 13 1025.3 - 0.0
23/06:30pm 13.2 9.5 6.1 62 3.4 SSE 15 28 8 15 1025.1 - 0.0
23/06:00pm 13.5 9.7 5.7 59 3.7 SSE 15 30 8 16 1025.0 1025.0 0.0
23/05:30pm 13.7 10.3 5.8 59 3.7 SE 13 26 7 14 1024.9 - 0.0
23/05:00pm 13.8 9.6 5.9 59 3.8 SE 17 32 9 17 1024.9 - 0.0
23/04:30pm 14.0 9.6 6.4 60 3.7 SSE 19 37 10 20 1024.8 - 0.0
23/04:00pm 14.0 9.4 6.4 60 3.7 S 20 32 11 17 1024.7 - 0.0
23/03:30pm 15.2 10.8 6.7 57 4.2 S 19 35 10 19 1024.7 - 0.0
23/03:00pm 15.0 11.4 6.8 58 4.0 SSE 15 35 8 19 1024.8 1024.8 0.0
23/02:30pm 15.7 10.7 6.4 54 4.5 S 22 41 12 22 1024.9 - 0.0
23/02:00pm 14.1 8.9 5.5 56 4.1 S 22 41 12 22 1025.0 - 0.0
23/01:30pm 15.7 11.0 6.2 53 4.6 S 20 46 11 25 1025.1 - 0.0
23/01:00pm 15.1 10.8 5.3 52 4.6 SSE 17 37 9 20 1024.9 - 0.0
23/12:30pm 15.7 11.0 6.2 53 4.6 SSE 20 39 11 21 1024.8 - 0.0
23/12:00pm 14.7 9.5 5.5 54 4.3 SSE 22 48 12 26 1024.8 1024.8 0.0
23/11:30am 15.2 9.9 5.1 51 4.8 S 22 52 12 28 1024.7 - 0.0
23/11:00am 15.4 10.3 5.9 53 4.6 S 22 41 12 22 1024.6 - 0.0
23/10:46am 14.6 8.1 4.9 52 4.5 S 28 50 15 27 1024.8 - 0.0
23/10:30am 14.6 9.4 5.4 54 4.4 S 22 44 12 24 1024.7 - 0.0
23/10:00am 14.1 8.2 5.7 57 4.0 S 26 44 14 24 1024.6 - 0.0
23/09:46am 13.5 7.2 5.9 60 3.6 S 28 48 15 26 1024.3 - 0.0
23/09:30am 13.4 7.5 5.6 59 3.7 S 26 46 14 25 1024.2 - 0.0
23/09:00am 13.2 7.6 5.4 59 3.6 S 24 46 13 25 1023.9 1023.9 0.0
23/08:36am 12.8 6.5 5.7 62 3.3 S 28 54 15 29 1023.8 - 0.0
23/08:30am 12.9 7.4 5.8 62 3.3 S 24 46 13 25 1023.8 - 0.0
23/08:00am 12.2 6.6 5.6 64 3.1 S 24 44 13 24 1023.3 - 0.0
23/07:46am 12.4 6.3 6.7 68 2.7 S 28 50 15 27 1023.0 - 0.0
23/07:30am 12.4 7.6 7.3 71 2.5 S 22 43 12 23 1022.6 - 0.0
23/07:02am 12.0 5.9 6.7 70 2.5 S 28 50 15 27 1022.0 - 0.0
23/07:00am 12.0 6.4 7.1 72 2.4 S 26 50 14 27 1022.1 - 0.0
23/06:30am 11.8 6.0 8.1 78 1.8 S 28 59 15 32 1021.7 - 0.0
23/06:01am 11.9 6.1 8.0 77 1.9 S 28 50 15 27 1021.3 - 0.0
23/06:00am 11.9 6.5 8.0 77 1.9 S 26 50 14 27 1021.3 1021.3 0.0
23/05:30am 11.8 5.6 9.4 85 1.2 SSE 32 54 17 29 1020.8 - 0.0
23/05:00am 12.4 6.8 10.3 87 1.1 S 30 54 16 29 1020.1 - 0.0
23/04:56am 12.3 7.1 10.2 87 1.1 SSE 28 46 15 25 1020.1 - 0.0
23/04:30am 12.8 8.9 10.9 88 1.0 SSE 22 43 12 23 1019.8 - 0.0
23/04:00am 13.3 9.2 11.4 88 1.0 SSE 24 41 13 22 1019.5 - 0.0
23/03:30am 13.4 9.2 11.1 86 1.2 SSE 24 41 13 22 1019.1 - 0.0
23/03:00am 13.4 10.1 11.5 88 1.0 SSE 20 43 11 23 1019.2 1019.2 0.0
23/02:30am 13.3 10.3 12.4 94 0.5 SSE 20 37 11 20 1018.9 - 0.0
23/02:00am 13.4 10.3 12.1 92 0.7 SSE 20 37 11 20 1018.9 - 0.0
23/01:30am 13.8 10.2 11.8 88 1.1 S 22 41 12 22 1018.6 - 0.0
23/01:00am 13.5 10.5 12.1 91 0.8 SSE 19 33 10 18 1018.5 - 0.0
23/12:30am 13.4 10.3 12.1 92 0.7 S 20 43 11 23 1018.2 - 0.0
23/12:00am 13.9 10.7 11.8 87 1.1 S 20 41 11 22 1017.8 1017.8 0.0
 
Date/Time
EDT
Temp
°C
App
Temp
°C
Dew
Point
Rel
Hum
%
Delta-T
°C
Wind Press
QNH
hPa
Press
MSL
hPa
Rain
since 9 am
mm
Dir
 
Spd
km/h
Gust
km/h
Spd
kts
Gust
kts
22/11:30pm 14.5 10.4 11.6 83 1.6 S 24 43 13 23 1017.1 - 0.0
22/11:05pm 15.4 10.5 11.4 77 2.2 S 28 46 15 25 1016.5 - 0.0
22/11:00pm 16.5 14.2 11.6 73 2.7 SE 15 32 8 17 1016.5 - 0.0
22/10:30pm 17.3 15.1 12.0 71 2.9 SSE 15 30 8 16 1015.9 - 0.0
22/10:00pm 18.6 18.5 10.7 60 4.3 NW 2 7 1 4 1014.7 - 0.0
22/09:30pm 19.1 18.1 10.4 57 4.7 WNW 6 15 3 8 1014.3 - 0.0
22/09:00pm 18.8 16.3 11.1 61 4.2 NNE 15 20 8 11 1014.1 1014.0 0.0
22/08:30pm 19.6 18.5 10.6 56 4.9 NNE 7 11 4 6 1013.9 - 0.0
22/08:00pm 21.2 20.0 10.4 50 5.9 N 7 13 4 7 1013.7 - 0.0
22/07:30pm 21.7 19.5 10.8 50 6.0 WNW 13 20 7 11 1014.1 - 0.0
22/07:00pm 21.7 20.3 10.8 50 6.0 WNW 9 22 5 12 1013.9 - 0.0
22/06:30pm 22.6 20.8 11.0 48 6.4 WNW 11 22 6 12 1013.6 - 0.0
22/06:00pm 23.9 21.4 10.9 44 7.3 NW 15 24 8 13 1013.6 1013.5 0.0
22/05:30pm 24.7 22.5 10.9 42 7.7 NW 13 32 7 17 1013.5 - 0.0
22/05:00pm 22.4 19.8 12.1 52 5.8 N 17 26 9 14 1013.6 - 0.0
22/04:30pm 20.9 17.8 12.3 58 4.8 NE 20 26 11 14 1013.8 - 0.0

Other Formats:

Comma delimited format used in spreadsheet applications
http://www.bom.gov.au/fwo/IDT60801/IDT60801.95981.axf

JavaScript Object Notation format (JSON) in row-major order
http://www.bom.gov.au/fwo/IDT60801/IDT60801.95981.json